sensor_id;sensor_type;location;lat;lon;timestamp;P1;durP1;ratioP1;P2;durP2;ratioP2
66272;SDS011;58450;52.150;4.466;2023-04-06T00:01:44;43.63;;;21.90;;
66272;SDS011;58450;52.150;4.466;2023-04-06T00:04:12;38.45;;;20.20;;
66272;SDS011;58450;52.150;4.466;2023-04-06T00:06:40;42.20;;;21.05;;
66272;SDS011;58450;52.150;4.466;2023-04-06T00:09:07;43.35;;;23.08;;
66272;SDS011;58450;52.150;4.466;2023-04-06T00:11:34;40.65;;;21.10;;
66272;SDS011;58450;52.150;4.466;2023-04-06T00:14:02;40.33;;;20.58;;
66272;SDS011;58450;52.150;4.466;2023-04-06T00:16:29;39.90;;;21.05;;
66272;SDS011;58450;52.150;4.466;2023-04-06T00:18:58;43.70;;;21.02;;
66272;SDS011;58450;52.150;4.466;2023-04-06T00:21:25;41.22;;;21.15;;
66272;SDS011;58450;52.150;4.466;2023-04-06T00:23:53;37.85;;;19.38;;
66272;SDS011;58450;52.150;4.466;2023-04-06T00:26:20;40.03;;;20.83;;
66272;SDS011;58450;52.150;4.466;2023-04-06T00:28:48;41.67;;;20.58;;
66272;SDS011;58450;52.150;4.466;2023-04-06T00:31:17;38.45;;;19.98;;
66272;SDS011;58450;52.150;4.466;2023-04-06T00:33:45;35.08;;;19.20;;
66272;SDS011;58450;52.150;4.466;2023-04-06T00:36:14;36.13;;;18.05;;
66272;SDS011;58450;52.150;4.466;2023-04-06T00:38:41;34.15;;;18.38;;
66272;SDS011;58450;52.150;4.466;2023-04-06T00:41:08;32.08;;;17.48;;
66272;SDS011;58450;52.150;4.466;2023-04-06T00:43:36;31.42;;;17.15;;
66272;SDS011;58450;52.150;4.466;2023-04-06T00:46:04;31.58;;;16.83;;
66272;SDS011;58450;52.150;4.466;2023-04-06T00:48:31;32.38;;;17.23;;
66272;SDS011;58450;52.150;4.466;2023-04-06T00:51:01;30.58;;;15.95;;
66272;SDS011;58450;52.150;4.466;2023-04-06T00:53:30;30.45;;;16.45;;
66272;SDS011;58450;52.150;4.466;2023-04-06T00:55:57;30.08;;;15.88;;
66272;SDS011;58450;52.150;4.466;2023-04-06T00:58:25;28.73;;;15.30;;
66272;SDS011;58450;52.150;4.466;2023-04-06T01:00:52;29.88;;;16.40;;
66272;SDS011;58450;52.150;4.466;2023-04-06T01:03:20;30.98;;;15.85;;
66272;SDS011;58450;52.150;4.466;2023-04-06T01:05:47;25.38;;;15.18;;
66272;SDS011;58450;52.150;4.466;2023-04-06T01:08:18;26.33;;;15.52;;
66272;SDS011;58450;52.150;4.466;2023-04-06T01:10:48;24.90;;;14.05;;
66272;SDS011;58450;52.150;4.466;2023-04-06T01:13:15;22.27;;;12.90;;
66272;SDS011;58450;52.150;4.466;2023-04-06T01:15:42;22.98;;;12.85;;
66272;SDS011;58450;52.150;4.466;2023-04-06T01:18:10;22.00;;;12.65;;
66272;SDS011;58450;52.150;4.466;2023-04-06T01:20:38;20.25;;;12.50;;
66272;SDS011;58450;52.150;4.466;2023-04-06T01:23:06;22.35;;;12.77;;
66272;SDS011;58450;52.150;4.466;2023-04-06T01:25:34;21.27;;;12.10;;
66272;SDS011;58450;52.150;4.466;2023-04-06T01:28:01;22.77;;;13.55;;
66272;SDS011;58450;52.150;4.466;2023-04-06T01:30:29;19.58;;;12.05;;
66272;SDS011;58450;52.150;4.466;2023-04-06T01:32:57;23.45;;;12.30;;
66272;SDS011;58450;52.150;4.466;2023-04-06T01:35:25;20.65;;;11.82;;
66272;SDS011;58450;52.150;4.466;2023-04-06T01:37:54;20.08;;;11.55;;
66272;SDS011;58450;52.150;4.466;2023-04-06T01:40:23;21.20;;;11.35;;
66272;SDS011;58450;52.150;4.466;2023-04-06T01:42:50;20.77;;;11.20;;
66272;SDS011;58450;52.150;4.466;2023-04-06T01:45:18;20.48;;;11.20;;
66272;SDS011;58450;52.150;4.466;2023-04-06T01:47:45;18.33;;;11.15;;
66272;SDS011;58450;52.150;4.466;2023-04-06T01:50:13;18.38;;;11.35;;
66272;SDS011;58450;52.150;4.466;2023-04-06T01:52:40;17.95;;;10.75;;
66272;SDS011;58450;52.150;4.466;2023-04-06T01:55:07;18.73;;;10.95;;
66272;SDS011;58450;52.150;4.466;2023-04-06T01:57:37;20.92;;;10.85;;
66272;SDS011;58450;52.150;4.466;2023-04-06T02:00:05;18.92;;;11.15;;
66272;SDS011;58450;52.150;4.466;2023-04-06T02:02:33;20.10;;;11.25;;
66272;SDS011;58450;52.150;4.466;2023-04-06T02:05:01;18.52;;;10.38;;
66272;SDS011;58450;52.150;4.466;2023-04-06T02:07:28;17.63;;;10.65;;
66272;SDS011;58450;52.150;4.466;2023-04-06T02:09:56;18.25;;;10.70;;
66272;SDS011;58450;52.150;4.466;2023-04-06T02:12:23;16.25;;;9.98;;
66272;SDS011;58450;52.150;4.466;2023-04-06T02:14:52;16.80;;;10.00;;
66272;SDS011;58450;52.150;4.466;2023-04-06T02:17:20;17.65;;;10.75;;
66272;SDS011;58450;52.150;4.466;2023-04-06T02:19:47;19.88;;;10.77;;
66272;SDS011;58450;52.150;4.466;2023-04-06T02:22:14;18.58;;;11.30;;
66272;SDS011;58450;52.150;4.466;2023-04-06T02:24:42;17.67;;;11.00;;
66272;SDS011;58450;52.150;4.466;2023-04-06T02:27:09;17.95;;;9.98;;
66272;SDS011;58450;52.150;4.466;2023-04-06T02:29:37;18.13;;;10.88;;
66272;SDS011;58450;52.150;4.466;2023-04-06T02:32:05;19.02;;;10.52;;
66272;SDS011;58450;52.150;4.466;2023-04-06T02:34:33;16.25;;;10.13;;
66272;SDS011;58450;52.150;4.466;2023-04-06T02:37:00;17.15;;;11.18;;
66272;SDS011;58450;52.150;4.466;2023-04-06T02:39:28;20.27;;;10.73;;
66272;SDS011;58450;52.150;4.466;2023-04-06T02:41:55;18.35;;;10.88;;
66272;SDS011;58450;52.150;4.466;2023-04-06T02:44:23;19.30;;;11.20;;
66272;SDS011;58450;52.150;4.466;2023-04-06T02:46:50;17.60;;;10.95;;
66272;SDS011;58450;52.150;4.466;2023-04-06T02:49:19;19.63;;;11.45;;
66272;SDS011;58450;52.150;4.466;2023-04-06T02:51:46;18.02;;;11.18;;
66272;SDS011;58450;52.150;4.466;2023-04-06T02:54:14;18.45;;;10.75;;
66272;SDS011;58450;52.150;4.466;2023-04-06T02:56:41;16.65;;;10.80;;
66272;SDS011;58450;52.150;4.466;2023-04-06T02:59:10;17.75;;;10.40;;
66272;SDS011;58450;52.150;4.466;2023-04-06T03:01:38;17.83;;;10.75;;
66272;SDS011;58450;52.150;4.466;2023-04-06T03:04:05;19.40;;;11.65;;
66272;SDS011;58450;52.150;4.466;2023-04-06T03:06:34;17.15;;;10.68;;
66272;SDS011;58450;52.150;4.466;2023-04-06T03:09:01;19.77;;;11.27;;
66272;SDS011;58450;52.150;4.466;2023-04-06T03:11:29;18.42;;;11.55;;
66272;SDS011;58450;52.150;4.466;2023-04-06T03:13:56;17.63;;;11.27;;
66272;SDS011;58450;52.150;4.466;2023-04-06T03:16:24;18.63;;;11.10;;
66272;SDS011;58450;52.150;4.466;2023-04-06T03:18:52;18.25;;;10.95;;
66272;SDS011;58450;52.150;4.466;2023-04-06T03:21:19;17.52;;;11.02;;
66272;SDS011;58450;52.150;4.466;2023-04-06T03:23:48;18.50;;;11.07;;
66272;SDS011;58450;52.150;4.466;2023-04-06T03:26:16;19.50;;;11.60;;
66272;SDS011;58450;52.150;4.466;2023-04-06T03:28:44;18.63;;;10.80;;
66272;SDS011;58450;52.150;4.466;2023-04-06T03:31:11;19.35;;;11.50;;
66272;SDS011;58450;52.150;4.466;2023-04-06T03:33:39;18.83;;;11.10;;
66272;SDS011;58450;52.150;4.466;2023-04-06T03:36:06;17.63;;;10.70;;
66272;SDS011;58450;52.150;4.466;2023-04-06T03:38:34;17.35;;;10.85;;
66272;SDS011;58450;52.150;4.466;2023-04-06T03:41:03;18.50;;;11.38;;
66272;SDS011;58450;52.150;4.466;2023-04-06T03:43:30;19.10;;;11.35;;
66272;SDS011;58450;52.150;4.466;2023-04-06T03:45:59;19.35;;;11.15;;
66272;SDS011;58450;52.150;4.466;2023-04-06T03:48:26;19.90;;;12.32;;
66272;SDS011;58450;52.150;4.466;2023-04-06T03:50:54;18.30;;;11.48;;
66272;SDS011;58450;52.150;4.466;2023-04-06T03:53:21;19.35;;;11.60;;
66272;SDS011;58450;52.150;4.466;2023-04-06T03:55:48;20.58;;;12.10;;
66272;SDS011;58450;52.150;4.466;2023-04-06T03:58:17;19.23;;;11.68;;
66272;SDS011;58450;52.150;4.466;2023-04-06T04:00:45;17.77;;;11.23;;
66272;SDS011;58450;52.150;4.466;2023-04-06T04:03:12;19.02;;;12.10;;
66272;SDS011;58450;52.150;4.466;2023-04-06T04:05:40;19.13;;;11.65;;
66272;SDS011;58450;52.150;4.466;2023-04-06T04:08:08;18.42;;;10.98;;
66272;SDS011;58450;52.150;4.466;2023-04-06T04:10:35;18.88;;;11.35;;
66272;SDS011;58450;52.150;4.466;2023-04-06T04:13:02;20.75;;;12.88;;
66272;SDS011;58450;52.150;4.466;2023-04-06T04:15:32;21.02;;;12.98;;
66272;SDS011;58450;52.150;4.466;2023-04-06T04:17:59;20.27;;;11.85;;
66272;SDS011;58450;52.150;4.466;2023-04-06T04:20:27;18.95;;;11.65;;
66272;SDS011;58450;52.150;4.466;2023-04-06T04:22:54;18.63;;;10.77;;
66272;SDS011;58450;52.150;4.466;2023-04-06T04:25:22;20.08;;;12.43;;
66272;SDS011;58450;52.150;4.466;2023-04-06T04:27:50;18.23;;;12.13;;
66272;SDS011;58450;52.150;4.466;2023-04-06T04:30:17;18.45;;;10.93;;
66272;SDS011;58450;52.150;4.466;2023-04-06T04:32:46;19.55;;;11.93;;
66272;SDS011;58450;52.150;4.466;2023-04-06T04:35:14;18.63;;;11.07;;
66272;SDS011;58450;52.150;4.466;2023-04-06T04:37:41;17.95;;;11.85;;
66272;SDS011;58450;52.150;4.466;2023-04-06T04:40:09;20.10;;;12.02;;
66272;SDS011;58450;52.150;4.466;2023-04-06T04:42:38;19.83;;;12.15;;
66272;SDS011;58450;52.150;4.466;2023-04-06T04:45:06;19.35;;;11.60;;
66272;SDS011;58450;52.150;4.466;2023-04-06T04:47:34;18.83;;;11.73;;
66272;SDS011;58450;52.150;4.466;2023-04-06T04:50:03;19.38;;;11.32;;
66272;SDS011;58450;52.150;4.466;2023-04-06T04:52:31;18.30;;;11.85;;
66272;SDS011;58450;52.150;4.466;2023-04-06T04:54:59;20.15;;;10.75;;
66272;SDS011;58450;52.150;4.466;2023-04-06T04:57:26;18.20;;;11.73;;
66272;SDS011;58450;52.150;4.466;2023-04-06T04:59:53;18.75;;;11.63;;
66272;SDS011;58450;52.150;4.466;2023-04-06T05:02:21;20.00;;;12.93;;
66272;SDS011;58450;52.150;4.466;2023-04-06T05:04:48;22.67;;;11.88;;
66272;SDS011;58450;52.150;4.466;2023-04-06T05:07:17;22.27;;;12.07;;
66272;SDS011;58450;52.150;4.466;2023-04-06T05:09:46;19.77;;;11.88;;
66272;SDS011;58450;52.150;4.466;2023-04-06T05:12:14;19.05;;;11.63;;
66272;SDS011;58450;52.150;4.466;2023-04-06T05:14:41;19.50;;;11.75;;
66272;SDS011;58450;52.150;4.466;2023-04-06T05:17:09;20.58;;;12.38;;
66272;SDS011;58450;52.150;4.466;2023-04-06T05:19:36;20.80;;;11.80;;
66272;SDS011;58450;52.150;4.466;2023-04-06T05:22:04;23.50;;;12.77;;
66272;SDS011;58450;52.150;4.466;2023-04-06T05:24:33;20.48;;;12.23;;
66272;SDS011;58450;52.150;4.466;2023-04-06T05:27:01;21.92;;;12.15;;
66272;SDS011;58450;52.150;4.466;2023-04-06T05:29:29;19.17;;;12.15;;
66272;SDS011;58450;52.150;4.466;2023-04-06T05:31:56;21.60;;;12.90;;
66272;SDS011;58450;52.150;4.466;2023-04-06T05:34:24;21.88;;;12.40;;
66272;SDS011;58450;52.150;4.466;2023-04-06T05:36:51;22.00;;;12.45;;
66272;SDS011;58450;52.150;4.466;2023-04-06T05:39:19;23.45;;;13.30;;
66272;SDS011;58450;52.150;4.466;2023-04-06T05:41:48;22.38;;;13.07;;
66272;SDS011;58450;52.150;4.466;2023-04-06T05:44:16;25.42;;;13.63;;
66272;SDS011;58450;52.150;4.466;2023-04-06T05:46:43;25.48;;;14.48;;
66272;SDS011;58450;52.150;4.466;2023-04-06T05:49:11;28.85;;;16.10;;
66272;SDS011;58450;52.150;4.466;2023-04-06T05:51:38;28.45;;;15.90;;
66272;SDS011;58450;52.150;4.466;2023-04-06T05:54:06;28.50;;;16.33;;
66272;SDS011;58450;52.150;4.466;2023-04-06T05:56:33;25.35;;;14.88;;
66272;SDS011;58450;52.150;4.466;2023-04-06T05:59:02;27.33;;;15.07;;
66272;SDS011;58450;52.150;4.466;2023-04-06T06:01:30;27.15;;;15.15;;
66272;SDS011;58450;52.150;4.466;2023-04-06T06:03:57;28.80;;;15.82;;
66272;SDS011;58450;52.150;4.466;2023-04-06T06:06:28;28.70;;;15.80;;
66272;SDS011;58450;52.150;4.466;2023-04-06T06:08:56;27.23;;;15.48;;
66272;SDS011;58450;52.150;4.466;2023-04-06T06:11:24;28.95;;;16.55;;
66272;SDS011;58450;52.150;4.466;2023-04-06T06:13:52;30.77;;;16.85;;
66272;SDS011;58450;52.150;4.466;2023-04-06T06:16:21;30.92;;;17.00;;
66272;SDS011;58450;52.150;4.466;2023-04-06T06:18:49;28.65;;;16.85;;
66272;SDS011;58450;52.150;4.466;2023-04-06T06:21:16;31.77;;;17.27;;
66272;SDS011;58450;52.150;4.466;2023-04-06T06:23:43;29.27;;;16.73;;
66272;SDS011;58450;52.150;4.466;2023-04-06T06:26:13;31.38;;;17.48;;
66272;SDS011;58450;52.150;4.466;2023-04-06T06:28:41;30.08;;;17.33;;
66272;SDS011;58450;52.150;4.466;2023-04-06T06:31:08;28.98;;;17.50;;
66272;SDS011;58450;52.150;4.466;2023-04-06T06:33:37;30.30;;;17.48;;
66272;SDS011;58450;52.150;4.466;2023-04-06T06:36:05;31.05;;;18.02;;
66272;SDS011;58450;52.150;4.466;2023-04-06T06:38:33;29.95;;;16.58;;
66272;SDS011;58450;52.150;4.466;2023-04-06T06:41:00;32.15;;;17.63;;
66272;SDS011;58450;52.150;4.466;2023-04-06T06:43:28;29.65;;;17.85;;
66272;SDS011;58450;52.150;4.466;2023-04-06T06:45:55;31.20;;;17.20;;
66272;SDS011;58450;52.150;4.466;2023-04-06T06:48:24;31.60;;;18.15;;
66272;SDS011;58450;52.150;4.466;2023-04-06T06:50:53;32.90;;;18.63;;
66272;SDS011;58450;52.150;4.466;2023-04-06T06:53:21;29.50;;;17.67;;
66272;SDS011;58450;52.150;4.466;2023-04-06T06:55:48;32.22;;;18.55;;
66272;SDS011;58450;52.150;4.466;2023-04-06T06:58:17;32.63;;;20.13;;
66272;SDS011;58450;52.150;4.466;2023-04-06T07:00:45;30.85;;;18.17;;
66272;SDS011;58450;52.150;4.466;2023-04-06T07:03:13;31.75;;;18.85;;
66272;SDS011;58450;52.150;4.466;2023-04-06T07:05:44;32.83;;;18.67;;
66272;SDS011;58450;52.150;4.466;2023-04-06T07:08:17;33.22;;;19.67;;
66272;SDS011;58450;52.150;4.466;2023-04-06T07:10:44;33.67;;;19.63;;
66272;SDS011;58450;52.150;4.466;2023-04-06T07:13:12;33.28;;;18.67;;
66272;SDS011;58450;52.150;4.466;2023-04-06T07:15:43;30.73;;;19.20;;
66272;SDS011;58450;52.150;4.466;2023-04-06T07:18:11;34.38;;;19.30;;
66272;SDS011;58450;52.150;4.466;2023-04-06T07:20:38;32.17;;;18.73;;
66272;SDS011;58450;52.150;4.466;2023-04-06T07:23:06;31.25;;;18.98;;
66272;SDS011;58450;52.150;4.466;2023-04-06T07:25:35;33.42;;;18.33;;
66272;SDS011;58450;52.150;4.466;2023-04-06T07:28:03;28.92;;;18.15;;
66272;SDS011;58450;52.150;4.466;2023-04-06T07:30:31;35.25;;;19.98;;
66272;SDS011;58450;52.150;4.466;2023-04-06T07:32:58;35.08;;;19.92;;
66272;SDS011;58450;52.150;4.466;2023-04-06T07:35:26;31.83;;;19.50;;
66272;SDS011;58450;52.150;4.466;2023-04-06T07:37:55;34.78;;;19.50;;
66272;SDS011;58450;52.150;4.466;2023-04-06T07:40:23;34.55;;;20.30;;
66272;SDS011;58450;52.150;4.466;2023-04-06T07:42:53;31.85;;;18.10;;
66272;SDS011;58450;52.150;4.466;2023-04-06T07:45:21;33.90;;;20.00;;
66272;SDS011;58450;52.150;4.466;2023-04-06T07:47:48;37.63;;;20.80;;
66272;SDS011;58450;52.150;4.466;2023-04-06T07:50:16;30.60;;;18.65;;
66272;SDS011;58450;52.150;4.466;2023-04-06T07:52:44;30.60;;;19.27;;
66272;SDS011;58450;52.150;4.466;2023-04-06T07:55:11;28.73;;;17.98;;
66272;SDS011;58450;52.150;4.466;2023-04-06T07:57:39;30.13;;;18.63;;
66272;SDS011;58450;52.150;4.466;2023-04-06T08:00:08;32.35;;;18.83;;
66272;SDS011;58450;52.150;4.466;2023-04-06T08:02:37;30.63;;;19.35;;
66272;SDS011;58450;52.150;4.466;2023-04-06T08:05:05;29.73;;;18.63;;
66272;SDS011;58450;52.150;4.466;2023-04-06T08:07:33;32.03;;;18.30;;
66272;SDS011;58450;52.150;4.466;2023-04-06T08:10:01;31.17;;;18.40;;
66272;SDS011;58450;52.150;4.466;2023-04-06T08:12:29;32.15;;;19.50;;
66272;SDS011;58450;52.150;4.466;2023-04-06T08:14:56;32.13;;;18.85;;
66272;SDS011;58450;52.150;4.466;2023-04-06T08:17:26;28.65;;;18.45;;
66272;SDS011;58450;52.150;4.466;2023-04-06T08:19:55;27.67;;;16.83;;
66272;SDS011;58450;52.150;4.466;2023-04-06T08:22:23;24.63;;;15.38;;
66272;SDS011;58450;52.150;4.466;2023-04-06T08:24:50;23.77;;;14.63;;
66272;SDS011;58450;52.150;4.466;2023-04-06T08:27:18;21.38;;;13.85;;
66272;SDS011;58450;52.150;4.466;2023-04-06T08:29:45;20.98;;;13.95;;
66272;SDS011;58450;52.150;4.466;2023-04-06T08:32:14;23.70;;;14.23;;
66272;SDS011;58450;52.150;4.466;2023-04-06T08:34:43;25.25;;;14.68;;
66272;SDS011;58450;52.150;4.466;2023-04-06T08:37:11;23.48;;;15.13;;
66272;SDS011;58450;52.150;4.466;2023-04-06T08:39:38;24.95;;;15.63;;
66272;SDS011;58450;52.150;4.466;2023-04-06T08:42:10;27.95;;;17.05;;
66272;SDS011;58450;52.150;4.466;2023-04-06T08:44:45;26.15;;;16.40;;
66272;SDS011;58450;52.150;4.466;2023-04-06T08:47:15;29.42;;;19.15;;
66272;SDS011;58450;52.150;4.466;2023-04-06T08:49:44;28.33;;;17.30;;
66272;SDS011;58450;52.150;4.466;2023-04-06T08:52:13;27.48;;;18.13;;
66272;SDS011;58450;52.150;4.466;2023-04-06T08:54:45;27.13;;;17.67;;
66272;SDS011;58450;52.150;4.466;2023-04-06T08:57:12;26.77;;;17.98;;
66272;SDS011;58450;52.150;4.466;2023-04-06T08:59:41;31.45;;;19.23;;
66272;SDS011;58450;52.150;4.466;2023-04-06T09:02:11;27.45;;;17.48;;
66272;SDS011;58450;52.150;4.466;2023-04-06T09:04:46;24.92;;;15.27;;
66272;SDS011;58450;52.150;4.466;2023-04-06T09:07:16;22.98;;;13.45;;
66272;SDS011;58450;52.150;4.466;2023-04-06T09:09:43;21.42;;;12.77;;
66272;SDS011;58450;52.150;4.466;2023-04-06T09:12:21;19.75;;;11.27;;
66272;SDS011;58450;52.150;4.466;2023-04-06T09:14:50;17.52;;;9.80;;
66272;SDS011;58450;52.150;4.466;2023-04-06T09:17:21;15.95;;;9.73;;
66272;SDS011;58450;52.150;4.466;2023-04-06T09:19:51;17.30;;;9.73;;
66272;SDS011;58450;52.150;4.466;2023-04-06T09:22:19;15.55;;;8.68;;
66272;SDS011;58450;52.150;4.466;2023-04-06T09:24:47;16.30;;;9.32;;
66272;SDS011;58450;52.150;4.466;2023-04-06T09:27:16;17.02;;;8.57;;
66272;SDS011;58450;52.150;4.466;2023-04-06T09:29:45;13.43;;;8.18;;
66272;SDS011;58450;52.150;4.466;2023-04-06T09:32:12;15.55;;;7.93;;
66272;SDS011;58450;52.150;4.466;2023-04-06T09:34:42;14.93;;;8.00;;
66272;SDS011;58450;52.150;4.466;2023-04-06T09:37:16;12.85;;;7.60;;
66272;SDS011;58450;52.150;4.466;2023-04-06T09:39:45;13.82;;;7.63;;
66272;SDS011;58450;52.150;4.466;2023-04-06T09:42:22;15.02;;;8.60;;
66272;SDS011;58450;52.150;4.466;2023-04-06T09:44:51;14.52;;;8.05;;
66272;SDS011;58450;52.150;4.466;2023-04-06T09:47:19;12.93;;;7.85;;
66272;SDS011;58450;52.150;4.466;2023-04-06T09:49:50;14.40;;;7.13;;
66272;SDS011;58450;52.150;4.466;2023-04-06T09:52:24;11.52;;;6.72;;
66272;SDS011;58450;52.150;4.466;2023-04-06T09:54:59;13.63;;;7.15;;
66272;SDS011;58450;52.150;4.466;2023-04-06T09:57:31;11.82;;;7.30;;
66272;SDS011;58450;52.150;4.466;2023-04-06T10:02:38;14.95;;;7.95;;
66272;SDS011;58450;52.150;4.466;2023-04-06T10:05:17;11.02;;;6.40;;
66272;SDS011;58450;52.150;4.466;2023-04-06T10:07:55;11.57;;;6.72;;
66272;SDS011;58450;52.150;4.466;2023-04-06T10:10:28;13.23;;;7.53;;
66272;SDS011;58450;52.150;4.466;2023-04-06T10:12:57;11.93;;;7.03;;
66272;SDS011;58450;52.150;4.466;2023-04-06T10:15:25;12.57;;;6.80;;
66272;SDS011;58450;52.150;4.466;2023-04-06T10:17:55;13.60;;;7.80;;
66272;SDS011;58450;52.150;4.466;2023-04-06T10:20:25;12.02;;;7.30;;
66272;SDS011;58450;52.150;4.466;2023-04-06T10:23:05;14.68;;;7.70;;
66272;SDS011;58450;52.150;4.466;2023-04-06T10:25:40;13.40;;;7.72;;
66272;SDS011;58450;52.150;4.466;2023-04-06T10:28:18;12.35;;;7.82;;
66272;SDS011;58450;52.150;4.466;2023-04-06T10:30:46;14.85;;;8.50;;
66272;SDS011;58450;52.150;4.466;2023-04-06T10:33:14;12.95;;;8.15;;
66272;SDS011;58450;52.150;4.466;2023-04-06T10:35:42;13.25;;;8.45;;
66272;SDS011;58450;52.150;4.466;2023-04-06T10:38:11;13.55;;;8.43;;
66272;SDS011;58450;52.150;4.466;2023-04-06T10:40:40;13.20;;;8.23;;
66272;SDS011;58450;52.150;4.466;2023-04-06T10:43:10;13.45;;;8.55;;
66272;SDS011;58450;52.150;4.466;2023-04-06T10:45:39;14.18;;;8.73;;
66272;SDS011;58450;52.150;4.466;2023-04-06T10:48:15;15.48;;;10.13;;
66272;SDS011;58450;52.150;4.466;2023-04-06T10:50:44;14.57;;;9.18;;
66272;SDS011;58450;52.150;4.466;2023-04-06T10:53:21;12.02;;;8.65;;
66272;SDS011;58450;52.150;4.466;2023-04-06T10:55:51;15.40;;;9.25;;
66272;SDS011;58450;52.150;4.466;2023-04-06T10:58:24;16.48;;;9.98;;
66272;SDS011;58450;52.150;4.466;2023-04-06T11:00:52;13.20;;;9.32;;
66272;SDS011;58450;52.150;4.466;2023-04-06T11:03:21;14.32;;;9.73;;
66272;SDS011;58450;52.150;4.466;2023-04-06T11:05:49;14.85;;;9.18;;
66272;SDS011;58450;52.150;4.466;2023-04-06T11:08:26;12.77;;;8.70;;
66272;SDS011;58450;52.150;4.466;2023-04-06T11:11:06;12.98;;;8.50;;
66272;SDS011;58450;52.150;4.466;2023-04-06T11:13:41;12.95;;;9.07;;
66272;SDS011;58450;52.150;4.466;2023-04-06T11:16:12;14.80;;;9.23;;
66272;SDS011;58450;52.150;4.466;2023-04-06T11:18:47;13.63;;;9.13;;
66272;SDS011;58450;52.150;4.466;2023-04-06T11:21:17;14.52;;;9.48;;
66272;SDS011;58450;52.150;4.466;2023-04-06T11:23:46;15.10;;;9.60;;
66272;SDS011;58450;52.150;4.466;2023-04-06T11:26:14;13.30;;;9.63;;
66272;SDS011;58450;52.150;4.466;2023-04-06T11:28:42;12.63;;;9.63;;
66272;SDS011;58450;52.150;4.466;2023-04-06T11:31:10;13.35;;;9.32;;
66272;SDS011;58450;52.150;4.466;2023-04-06T11:33:38;13.57;;;9.02;;
66272;SDS011;58450;52.150;4.466;2023-04-06T11:36:06;12.98;;;9.27;;
66272;SDS011;58450;52.150;4.466;2023-04-06T11:38:34;13.30;;;9.40;;
66272;SDS011;58450;52.150;4.466;2023-04-06T11:41:08;12.32;;;8.98;;
66272;SDS011;58450;52.150;4.466;2023-04-06T11:43:35;13.82;;;9.00;;
66272;SDS011;58450;52.150;4.466;2023-04-06T11:46:03;13.23;;;8.45;;
66272;SDS011;58450;52.150;4.466;2023-04-06T11:48:32;13.30;;;9.00;;
66272;SDS011;58450;52.150;4.466;2023-04-06T11:51:11;12.60;;;8.77;;
66272;SDS011;58450;52.150;4.466;2023-04-06T11:53:48;13.00;;;8.30;;
66272;SDS011;58450;52.150;4.466;2023-04-06T11:56:23;13.93;;;8.52;;
66272;SDS011;58450;52.150;4.466;2023-04-06T11:58:54;11.70;;;8.27;;
66272;SDS011;58450;52.150;4.466;2023-04-06T12:01:25;12.85;;;8.88;;
66272;SDS011;58450;52.150;4.466;2023-04-06T12:03:53;12.32;;;9.05;;
66272;SDS011;58450;52.150;4.466;2023-04-06T12:06:20;14.25;;;8.90;;
66272;SDS011;58450;52.150;4.466;2023-04-06T12:08:48;13.25;;;9.25;;
66272;SDS011;58450;52.150;4.466;2023-04-06T12:11:16;12.32;;;8.50;;
66272;SDS011;58450;52.150;4.466;2023-04-06T12:13:46;14.55;;;8.68;;
66272;SDS011;58450;52.150;4.466;2023-04-06T12:16:14;11.95;;;8.35;;
66272;SDS011;58450;52.150;4.466;2023-04-06T12:18:42;11.02;;;8.10;;
66272;SDS011;58450;52.150;4.466;2023-04-06T12:21:09;12.65;;;8.90;;
66272;SDS011;58450;52.150;4.466;2023-04-06T12:23:37;10.80;;;8.25;;
66272;SDS011;58450;52.150;4.466;2023-04-06T12:26:04;12.38;;;8.65;;
66272;SDS011;58450;52.150;4.466;2023-04-06T12:28:32;13.25;;;8.40;;
66272;SDS011;58450;52.150;4.466;2023-04-06T12:31:01;11.82;;;7.95;;
66272;SDS011;58450;52.150;4.466;2023-04-06T12:33:28;11.93;;;8.10;;
66272;SDS011;58450;52.150;4.466;2023-04-06T12:35:56;11.65;;;8.25;;
66272;SDS011;58450;52.150;4.466;2023-04-06T12:38:23;12.20;;;8.18;;
66272;SDS011;58450;52.150;4.466;2023-04-06T12:40:51;11.45;;;7.95;;
66272;SDS011;58450;52.150;4.466;2023-04-06T12:43:18;11.68;;;7.93;;
66272;SDS011;58450;52.150;4.466;2023-04-06T12:45:46;11.55;;;7.85;;
66272;SDS011;58450;52.150;4.466;2023-04-06T12:48:15;10.90;;;7.70;;
66272;SDS011;58450;52.150;4.466;2023-04-06T12:50:42;11.50;;;7.45;;
66272;SDS011;58450;52.150;4.466;2023-04-06T12:53:10;11.35;;;7.30;;
66272;SDS011;58450;52.150;4.466;2023-04-06T12:55:37;11.18;;;7.40;;
66272;SDS011;58450;52.150;4.466;2023-04-06T12:58:05;10.68;;;7.60;;
66272;SDS011;58450;52.150;4.466;2023-04-06T13:00:32;10.63;;;7.55;;
66272;SDS011;58450;52.150;4.466;2023-04-06T13:03:00;10.43;;;7.43;;
66272;SDS011;58450;52.150;4.466;2023-04-06T13:05:29;9.40;;;6.72;;
66272;SDS011;58450;52.150;4.466;2023-04-06T13:07:56;9.45;;;6.88;;
66272;SDS011;58450;52.150;4.466;2023-04-06T13:10:24;10.05;;;7.50;;
66272;SDS011;58450;52.150;4.466;2023-04-06T13:12:52;11.40;;;6.57;;
66272;SDS011;58450;52.150;4.466;2023-04-06T13:15:19;11.02;;;7.13;;
66272;SDS011;58450;52.150;4.466;2023-04-06T13:17:47;10.40;;;6.72;;
66272;SDS011;58450;52.150;4.466;2023-04-06T13:20:15;9.85;;;6.40;;
66272;SDS011;58450;52.150;4.466;2023-04-06T13:22:44;9.73;;;6.80;;
66272;SDS011;58450;52.150;4.466;2023-04-06T13:25:11;8.77;;;6.13;;
66272;SDS011;58450;52.150;4.466;2023-04-06T13:27:38;10.73;;;6.65;;
66272;SDS011;58450;52.150;4.466;2023-04-06T13:30:06;10.52;;;6.93;;
66272;SDS011;58450;52.150;4.466;2023-04-06T13:32:35;10.90;;;6.90;;
66272;SDS011;58450;52.150;4.466;2023-04-06T13:35:03;11.77;;;7.65;;
66272;SDS011;58450;52.150;4.466;2023-04-06T13:37:32;9.27;;;6.30;;
66272;SDS011;58450;52.150;4.466;2023-04-06T13:40:01;9.85;;;6.50;;
66272;SDS011;58450;52.150;4.466;2023-04-06T13:42:30;10.50;;;6.13;;
66272;SDS011;58450;52.150;4.466;2023-04-06T13:44:58;9.63;;;6.50;;
66272;SDS011;58450;52.150;4.466;2023-04-06T13:47:26;9.10;;;6.43;;
66272;SDS011;58450;52.150;4.466;2023-04-06T13:49:54;9.48;;;6.38;;
66272;SDS011;58450;52.150;4.466;2023-04-06T13:52:21;9.38;;;6.38;;
66272;SDS011;58450;52.150;4.466;2023-04-06T13:54:49;8.68;;;6.53;;
66272;SDS011;58450;52.150;4.466;2023-04-06T13:57:18;9.27;;;5.85;;
66272;SDS011;58450;52.150;4.466;2023-04-06T13:59:46;9.32;;;6.38;;
66272;SDS011;58450;52.150;4.466;2023-04-06T14:02:15;10.07;;;6.57;;
66272;SDS011;58450;52.150;4.466;2023-04-06T14:04:43;9.75;;;6.50;;
66272;SDS011;58450;52.150;4.466;2023-04-06T14:07:10;9.35;;;6.55;;
66272;SDS011;58450;52.150;4.466;2023-04-06T14:09:38;8.73;;;6.47;;
66272;SDS011;58450;52.150;4.466;2023-04-06T14:12:05;8.85;;;6.00;;
66272;SDS011;58450;52.150;4.466;2023-04-06T14:14:34;9.23;;;6.20;;
66272;SDS011;58450;52.150;4.466;2023-04-06T14:17:01;8.60;;;5.95;;
66272;SDS011;58450;52.150;4.466;2023-04-06T14:19:29;10.07;;;6.30;;
66272;SDS011;58450;52.150;4.466;2023-04-06T14:21:56;9.35;;;6.53;;
66272;SDS011;58450;52.150;4.466;2023-04-06T14:24:24;9.25;;;6.65;;
66272;SDS011;58450;52.150;4.466;2023-04-06T14:26:52;9.50;;;6.22;;
66272;SDS011;58450;52.150;4.466;2023-04-06T14:29:19;9.65;;;6.68;;
66272;SDS011;58450;52.150;4.466;2023-04-06T14:31:48;11.02;;;7.15;;
66272;SDS011;58450;52.150;4.466;2023-04-06T14:34:16;9.95;;;6.35;;
66272;SDS011;58450;52.150;4.466;2023-04-06T14:36:43;9.70;;;6.82;;
66272;SDS011;58450;52.150;4.466;2023-04-06T14:39:11;9.20;;;6.47;;